Time;durP1;ratioP1;P1;durP2;ratioP2;P2;SDS_P1;SDS_P2;PMS_P1;PMS_P2;Temp;Humidity;BMP_temperature;BMP_pressure;BME280_temperature;BME280_humidity;BME280_pressure;Samples;Min_cycle;Max_cycle;Signal;HPM_P1;HPM_P2
2022/08/15 00:02:21;;;;;;;1.93;1.83;;;;;;;24.95;60.66;96496.41;5071125;28;20219;-24
2022/08/15 00:05:01;;;;;;;1.97;1.87;;;;;;;24.96;60.87;96497.28;5071137;28;21100;-24
2022/08/15 00:07:30;;;;;;;1.90;1.80;;;;;;;24.94;60.69;96499.84;5071012;28;20610;-24
2022/08/15 00:10:11;;;;;;;1.97;1.87;;;;;;;24.95;60.65;96503.25;5063530;28;20200;-24
2022/08/15 00:13:00;;;;;;;1.80;1.70;;;;;;;24.94;61.26;96496.41;5069663;28;20701;-24
2022/08/15 00:15:40;;;;;;;1.83;1.73;;;;;;;24.95;60.79;96492.97;5070502;28;20558;-24
2022/08/15 00:18:09;;;;;;;1.90;1.80;;;;;;;24.95;60.68;96490.41;5070994;28;20572;-24
2022/08/15 00:20:37;;;;;;;2.03;1.93;;;;;;;24.95;60.68;96493.84;5070290;28;20619;-24
2022/08/15 00:23:07;;;;;;;1.87;1.77;;;;;;;24.94;60.44;96492.13;5071088;28;20641;-24
2022/08/15 00:25:37;;;;;;;1.90;1.80;;;;;;;24.95;60.77;96483.56;5070411;28;20291;-24
2022/08/15 00:28:06;;;;;;;1.60;1.50;;;;;;;24.95;60.42;96483.56;5059556;28;20196;-24
2022/08/15 00:30:38;;;;;;;1.90;1.80;;;;;;;24.90;60.49;96471.56;5070727;28;20479;-24
2022/08/15 00:33:24;;;;;;;1.77;1.67;;;;;;;24.95;60.66;96487.81;5065356;28;20192;-24
2022/08/15 00:35:55;;;;;;;1.70;1.60;;;;;;;24.95;60.40;96486.13;5070113;28;20290;-24
2022/08/15 00:38:42;;;;;;;1.87;1.77;;;;;;;24.95;60.74;96492.97;5070872;28;20597;-24
2022/08/15 00:44:02;;;;;;;2.00;1.90;;;;;;;24.96;60.79;96489.56;5069665;28;20227;-24
2022/08/15 00:46:32;;;;;;;2.00;1.90;;;;;;;24.95;60.31;96486.13;5069152;28;20723;-24
2022/08/15 00:48:59;;;;;;;1.90;1.80;;;;;;;24.96;60.41;96487.00;5070357;28;20266;-24
2022/08/15 00:51:31;;;;;;;2.10;2.00;;;;;;;24.95;60.47;96480.97;5070087;28;20235;-24
2022/08/15 00:54:05;;;;;;;1.80;1.70;;;;;;;24.95;60.89;96490.41;5052417;28;20249;-24
2022/08/15 00:56:44;;;;;;;2.00;1.90;;;;;;;24.76;60.54;96457.88;5053384;28;20235;-24
2022/08/15 00:59:20;;;;;;;2.17;2.07;;;;;;;24.93;60.77;96492.13;5047418;28;20584;-24
2022/08/15 01:01:47;;;;;;;1.80;1.70;;;;;;;24.75;60.77;96462.13;5042226;28;20228;-24
2022/08/15 01:04:27;;;;;;;1.90;1.80;;;;;;;24.94;60.52;96481.84;5044128;28;20201;-24
2022/08/15 01:07:01;;;;;;;1.97;1.80;;;;;;;24.83;60.76;96470.72;5073486;28;20240;-24
2022/08/15 01:09:30;;;;;;;2.00;1.90;;;;;;;24.90;60.85;96485.25;5056388;28;20204;-24
2022/08/15 01:12:05;;;;;;;1.80;1.70;;;;;;;24.94;60.54;96487.00;5061534;28;20256;-24
2022/08/15 01:14:33;;;;;;;1.90;1.80;;;;;;;24.96;60.36;96484.41;5036316;28;20209;-24
2022/08/15 01:17:19;;;;;;;1.97;1.87;;;;;;;24.96;60.75;96487.00;5057794;28;20208;-24
2022/08/15 01:19:51;;;;;;;1.90;1.80;;;;;;;24.96;60.74;96487.00;5073863;28;20201;-24
2022/08/15 01:22:23;;;;;;;1.83;1.73;;;;;;;24.95;60.49;96480.97;5059144;28;20289;-24
2022/08/15 01:25:00;;;;;;;3.10;1.80;;;;;;;24.79;60.68;96448.44;5056019;28;20254;-24
2022/08/15 01:28:05;;;;;;;2.00;1.90;;;;;;;24.96;60.75;96484.41;5056525;28;20200;-24
2022/08/15 01:30:45;;;;;;;1.90;1.80;;;;;;;24.96;60.45;96484.41;5064340;28;20361;-24
2022/08/15 01:33:31;;;;;;;1.90;1.80;;;;;;;24.95;60.56;96493.84;5068556;28;20196;-24
2022/08/15 01:35:59;;;;;;;1.70;1.60;;;;;;;24.95;60.51;96493.84;5073140;28;20667;-24
2022/08/15 01:38:35;;;;;;;1.87;1.77;;;;;;;24.95;60.71;96486.13;5073397;28;20673;-24
2022/08/15 01:41:26;;;;;;;1.90;1.80;;;;;;;24.95;60.90;96492.97;5073339;28;20220;-24
2022/08/15 01:44:11;;;;;;;2.00;1.90;;;;;;;24.93;60.57;96490.41;5073196;28;20637;-24
2022/08/15 01:47:14;;;;;;;1.80;1.70;;;;;;;24.93;60.93;96505.81;5072262;28;20210;-24
2022/08/15 01:50:08;;;;;;;1.90;1.80;;;;;;;24.94;60.79;96488.69;5072776;28;20638;-24
2022/08/15 01:52:50;;;;;;;1.90;1.80;;;;;;;24.94;60.76;96481.84;5066792;28;20199;-24
2022/08/15 01:55:49;;;;;;;1.90;1.80;;;;;;;24.95;60.92;96477.53;5055800;28;20287;-24
2022/08/15 01:58:21;;;;;;;1.90;1.80;;;;;;;24.93;60.60;96479.28;5056682;28;20694;-24
2022/08/15 02:00:53;;;;;;;2.10;2.00;;;;;;;24.95;60.32;96483.56;5072800;28;20691;-24
2022/08/15 02:03:20;;;;;;;1.90;1.80;;;;;;;24.96;60.64;96484.41;5073079;28;20675;-24
2022/08/15 02:05:48;;;;;;;1.97;1.87;;;;;;;24.89;60.89;96478.41;5072479;28;20200;-24
2022/08/15 02:08:23;;;;;;;1.97;1.87;;;;;;;24.95;60.93;96483.56;5072476;28;20617;-24
2022/08/15 02:11:01;;;;;;;1.87;1.77;;;;;;;24.95;60.85;96483.56;5071949;28;20238;-24
2022/08/15 02:13:28;;;;;;;1.83;1.73;;;;;;;24.95;60.98;96487.81;5072320;28;20228;-24
2022/08/15 02:15:54;;;;;;;2.17;1.97;;;;;;;24.96;60.49;96489.56;5072205;28;20226;-24
2022/08/15 02:18:21;;;;;;;2.00;1.90;;;;;;;24.89;60.92;96481.00;5072293;28;20299;-24
2022/08/15 02:20:48;;;;;;;2.10;2.00;;;;;;;24.96;60.76;96487.00;5072598;28;20226;-24
2022/08/15 02:23:16;;;;;;;1.80;1.70;;;;;;;24.95;60.82;96486.13;5072428;28;20220;-24
2022/08/15 02:25:47;;;;;;;1.97;1.87;;;;;;;24.95;60.81;96486.13;5072431;28;20289;-25
2022/08/15 02:28:14;;;;;;;2.20;2.10;;;;;;;24.89;60.38;96477.53;5072652;28;20640;-24
2022/08/15 02:31:07;;;;;;;1.90;1.80;;;;;;;24.95;60.23;96477.53;5071991;28;20590;-24
2022/08/15 02:33:37;;;;;;;2.00;1.90;;;;;;;24.93;60.57;96485.25;5039073;28;20550;-25
2022/08/15 02:36:03;;;;;;;1.80;1.70;;;;;;;24.93;61.07;96487.00;5072138;28;20235;-24
2022/08/15 02:38:31;;;;;;;1.90;1.80;;;;;;;24.96;60.83;96484.41;5071944;28;20209;-24
2022/08/15 02:41:14;;;;;;;1.77;1.67;;;;;;;24.74;60.60;96446.72;5065292;28;20651;-24
2022/08/15 02:43:43;;;;;;;1.90;1.80;;;;;;;24.93;60.53;96487.81;5037974;28;20219;-24
2022/08/15 02:46:10;;;;;;;1.80;1.70;;;;;;;24.95;60.93;96492.97;5064587;28;20298;-24
2022/08/15 02:48:58;;;;;;;2.00;1.90;;;;;;;24.95;60.91;96490.41;5072029;28;20299;-24
2022/08/15 02:51:25;;;;;;;1.90;1.80;;;;;;;24.96;60.48;96497.28;5071704;28;20224;-24
2022/08/15 02:53:52;;;;;;;2.17;2.00;;;;;;;24.90;60.61;96484.41;5071668;28;20334;-24
2022/08/15 02:56:21;;;;;;;2.10;2.00;;;;;;;24.95;60.61;96493.84;5071678;28;20239;-24
2022/08/15 02:58:48;;;;;;;2.00;1.90;;;;;;;24.96;60.45;96494.69;5071970;28;20668;-24
2022/08/15 03:01:15;;;;;;;1.90;1.80;;;;;;;24.96;60.50;96484.41;5071688;28;20220;-24
2022/08/15 03:03:51;;;;;;;2.00;1.90;;;;;;;24.90;60.86;96466.44;5071750;28;20216;-24
2022/08/15 03:06:30;;;;;;;2.00;1.90;;;;;;;24.97;60.63;96486.13;5071173;28;20232;-24
2022/08/15 03:09:00;;;;;;;1.93;1.83;;;;;;;24.96;60.73;96484.41;5071640;28;20218;-24
2022/08/15 03:11:28;;;;;;;2.10;2.00;;;;;;;24.96;60.90;96484.41;5088578;22;20784;-30
2022/08/15 03:14:16;;;;;;;1.90;1.80;;;;;;;24.95;60.42;96493.84;5064677;28;20202;-30
2022/08/15 03:17:00;;;;;;;2.40;2.20;;;;;;;24.92;60.60;96491.25;5071261;28;20208;-30
2022/08/15 03:19:27;;;;;;;1.80;1.70;;;;;;;24.94;60.43;96499.84;5071780;28;20243;-30
2022/08/15 03:21:55;;;;;;;2.00;1.90;;;;;;;24.94;60.70;96499.84;5071208;28;20220;-30
2022/08/15 03:24:22;;;;;;;2.00;1.90;;;;;;;24.95;60.49;96492.97;5071279;28;20231;-30
2022/08/15 03:26:49;;;;;;;1.87;1.77;;;;;;;24.93;60.62;96487.00;5070697;28;20295;-30
2022/08/15 03:29:20;;;;;;;2.10;2.00;;;;;;;24.95;60.55;96490.41;5070949;28;20200;-30
2022/08/15 03:31:48;;;;;;;1.90;1.80;;;;;;;24.90;60.38;96479.28;5071554;28;20284;-30
2022/08/15 03:34:15;;;;;;;6.57;1.90;;;;;;;24.96;60.43;96489.56;5053641;28;20283;-30
2022/08/15 03:36:45;;;;;;;2.00;1.90;;;;;;;24.96;60.50;96484.41;5037049;28;20655;-30
2022/08/15 03:39:18;;;;;;;1.90;1.80;;;;;;;24.92;60.40;96482.69;5070951;28;20211;-29
2022/08/15 03:41:45;;;;;;;1.90;1.80;;;;;;;24.96;60.39;96492.97;5071035;28;20224;-30
2022/08/15 03:44:20;;;;;;;2.00;1.90;;;;;;;24.96;60.88;96492.97;5070904;28;20700;-30
2022/08/15 03:46:54;;;;;;;1.97;1.87;;;;;;;24.97;60.82;96496.41;5070962;28;20600;-30
2022/08/15 03:49:21;;;;;;;1.87;1.77;;;;;;;24.96;60.94;96492.97;5070863;28;20671;-30
2022/08/15 03:52:08;;;;;;;2.07;1.97;;;;;;;24.89;61.00;96488.69;5064237;28;20220;-31
2022/08/15 03:54:36;;;;;;;2.10;2.00;;;;;;;24.93;60.46;96497.28;5063640;28;20200;-30
2022/08/15 03:57:05;;;;;;;2.00;1.90;;;;;;;24.95;60.96;96493.84;5070455;28;20192;-30
2022/08/15 03:59:31;;;;;;;1.90;1.80;;;;;;;24.96;60.39;96500.69;5070990;28;20239;-30
2022/08/15 04:02:10;;;;;;;2.10;2.00;;;;;;;24.95;60.56;96509.25;5070602;28;20752;-30
2022/08/15 04:04:55;;;;;;;1.93;1.83;;;;;;;24.95;60.71;96506.69;5070618;28;20195;-31
2022/08/15 04:07:25;;;;;;;2.00;1.90;;;;;;;24.95;60.50;96510.97;5055675;28;20259;-30
2022/08/15 04:10:09;;;;;;;1.93;1.83;;;;;;;24.95;60.88;96519.53;5070980;28;20234;-30
2022/08/15 04:12:56;;;;;;;2.10;2.00;;;;;;;24.95;60.47;96513.53;5055689;28;20204;-30
2022/08/15 04:15:27;;;;;;;2.00;1.90;;;;;;;24.96;60.87;96523.81;5070875;28;20236;-30
2022/08/15 04:17:56;;;;;;;2.00;1.90;;;;;;;24.95;60.60;96529.81;5070584;28;20253;-30
2022/08/15 04:20:30;;;;;;;2.00;1.90;;;;;;;24.95;60.67;96521.25;5070199;28;20200;-30
2022/08/15 04:22:58;;;;;;;1.93;1.83;;;;;;;24.96;60.81;96528.13;5070716;28;20293;-30
2022/08/15 04:25:28;;;;;;;1.73;1.63;;;;;;;24.97;60.88;96527.25;5052372;28;20655;-30
2022/08/15 04:28:09;;;;;;;2.00;1.90;;;;;;;24.96;60.74;96534.09;5040409;28;20261;-30
2022/08/15 04:30:56;;;;;;;1.87;1.77;;;;;;;24.96;60.67;96530.69;5068755;28;20215;-30
2022/08/15 04:33:27;;;;;;;2.13;2.03;;;;;;;24.96;61.06;96536.66;5058001;28;20200;-30
2022/08/15 04:36:16;;;;;;;2.30;2.20;;;;;;;24.95;60.55;96540.09;5077157;28;20198;-31
2022/08/15 04:38:45;;;;;;;2.17;2.07;;;;;;;24.95;60.49;96542.69;5076938;28;20682;-31
2022/08/15 04:41:16;;;;;;;2.00;1.90;;;;;;;24.96;60.64;96541.81;5076861;28;20314;-30
2022/08/15 04:44:02;;;;;;;2.10;2.00;;;;;;;24.92;60.76;96540.09;5077100;28;20231;-30
2022/08/15 04:46:29;;;;;;;2.03;1.93;;;;;;;24.96;60.91;96546.94;5076817;28;20200;-30
2022/08/15 04:48:56;;;;;;;1.80;1.70;;;;;;;24.95;60.82;96547.81;5077103;28;20196;-30
2022/08/15 04:51:24;;;;;;;2.10;2.00;;;;;;;24.95;60.65;96549.50;5077092;28;20254;-30
2022/08/15 04:54:03;;;;;;;2.10;2.00;;;;;;;24.95;60.82;96550.38;5076926;28;20222;-30
2022/08/15 04:56:30;;;;;;;2.10;2.00;;;;;;;24.95;60.66;96542.69;5077059;28;20192;-30
2022/08/15 04:59:16;;;;;;;2.07;1.97;;;;;;;24.96;60.95;96548.69;5070378;28;20219;-30
2022/08/15 05:02:04;;;;;;;2.10;2.00;;;;;;;24.96;60.92;96546.94;5076928;28;20237;-30
2022/08/15 05:04:51;;;;;;;2.30;2.20;;;;;;;24.96;60.89;96548.69;5076470;28;20216;-30
2022/08/15 05:07:17;;;;;;;2.20;2.10;;;;;;;24.97;60.83;96551.25;5076863;28;20667;-30
2022/08/15 05:09:44;;;;;;;2.10;2.00;;;;;;;24.96;60.82;96564.94;5076687;28;20204;-30
2022/08/15 05:12:29;;;;;;;2.00;1.90;;;;;;;24.97;60.93;96563.25;5076374;28;20343;-30
2022/08/15 05:15:13;;;;;;;2.10;2.00;;;;;;;24.96;60.47;96559.81;5076557;28;20200;-30
2022/08/15 05:17:45;;;;;;;5.50;2.40;;;;;;;24.95;60.74;96559.81;5076950;28;20215;-30
2022/08/15 05:20:23;;;;;;;2.00;1.90;;;;;;;24.97;60.69;96570.94;5076246;28;20257;-30
2022/08/15 05:23:06;;;;;;;2.17;2.07;;;;;;;24.98;60.66;96575.22;5075413;28;20204;-30
2022/08/15 05:25:35;;;;;;;2.10;2.00;;;;;;;24.97;60.57;96574.38;5076557;28;20672;-30
2022/08/15 05:28:07;;;;;;;2.10;2.00;;;;;;;24.96;60.96;96567.50;5074513;28;20237;-30
2022/08/15 05:30:54;;;;;;;1.90;1.80;;;;;;;24.94;60.46;96566.69;5076136;28;20736;-30
2022/08/15 05:33:25;;;;;;;2.20;2.10;;;;;;;24.97;60.86;96571.81;5076629;28;20200;-30
2022/08/15 05:36:12;;;;;;;2.17;2.07;;;;;;;24.98;60.49;96570.09;5076644;28;20349;-30
2022/08/15 05:38:58;;;;;;;1.87;1.77;;;;;;;24.98;60.96;96568.38;5061332;28;20204;-30
2022/08/15 05:41:28;;;;;;;2.10;2.00;;;;;;;24.99;60.68;96571.81;5076339;28;20252;-31
2022/08/15 05:44:16;;;;;;;2.10;2.00;;;;;;;25.00;60.72;96570.94;5075122;28;20315;-30
2022/08/15 05:47:12;;;;;;;2.07;1.97;;;;;;;24.98;60.65;96568.38;5073207;28;20208;-30
2022/08/15 05:50:07;;;;;;;2.20;2.10;;;;;;;24.98;60.65;96568.38;5073169;28;20229;-30
2022/08/15 05:53:15;;;;;;;2.17;2.07;;;;;;;24.98;60.62;96570.09;5051019;28;20227;-30
2022/08/15 05:56:12;;;;;;;2.00;1.90;;;;;;;24.98;60.41;96573.53;5028154;28;20239;-30
2022/08/15 05:59:07;;;;;;;1.90;1.80;;;;;;;24.98;60.37;96581.22;5070734;28;20203;-31
2022/08/15 06:01:39;;;;;;;2.00;1.90;;;;;;;24.98;60.48;96570.94;5055593;28;20220;-30
2022/08/15 06:04:13;;;;;;;2.00;1.90;;;;;;;24.93;60.64;96571.81;5072825;28;20232;-30
2022/08/15 06:06:56;;;;;;;2.00;1.90;;;;;;;24.90;60.80;96566.66;5056370;28;20197;-30
2022/08/15 06:09:29;;;;;;;1.90;1.80;;;;;;;24.99;60.92;96576.97;5038831;28;20287;-30
2022/08/15 06:12:06;;;;;;;2.23;2.10;;;;;;;24.98;60.86;96578.66;5072231;28;20231;-31
2022/08/15 06:14:54;;;;;;;2.00;1.90;;;;;;;24.99;60.63;96580.38;5047566;28;20230;-30
2022/08/15 06:17:28;;;;;;;2.20;2.10;;;;;;;24.99;60.54;96579.53;5039021;28;20296;-30
2022/08/15 06:19:56;;;;;;;2.00;1.90;;;;;;;24.99;60.79;96582.94;5061857;28;20241;-30
2022/08/15 06:22:52;;;;;;;1.93;1.83;;;;;;;24.99;60.88;96582.94;5055209;28;20303;-30
2022/08/15 06:25:25;;;;;;;2.10;2.00;;;;;;;25.00;60.96;96584.69;5071391;28;20200;-30
2022/08/15 06:28:28;;;;;;;2.30;2.20;;;;;;;24.91;60.92;96570.94;5072577;28;20203;-31
2022/08/15 06:31:19;;;;;;;2.10;2.00;;;;;;;24.85;60.64;96569.25;5053760;28;20227;-30
2022/08/15 06:33:58;;;;;;;1.90;1.80;;;;;;;24.80;60.83;96557.22;5054760;28;20287;-30
2022/08/15 06:36:55;;;;;;;2.00;1.90;;;;;;;24.97;60.65;96588.94;5040632;28;20200;-30
2022/08/15 06:39:21;;;;;;;1.90;1.80;;;;;;;25.00;60.87;96599.22;5038605;28;20287;-31
2022/08/15 06:41:51;;;;;;;2.20;2.10;;;;;;;24.99;60.60;96592.38;5072093;28;20239;-31
2022/08/15 06:44:18;;;;;;;2.30;2.20;;;;;;;25.00;60.54;96606.94;5071972;28;20220;-30
2022/08/15 06:47:03;;;;;;;2.03;1.93;;;;;;;24.97;60.80;96592.38;5072173;28;20299;-30
2022/08/15 06:49:37;;;;;;;1.77;1.67;;;;;;;24.99;60.76;96600.09;5040076;28;20401;-30
2022/08/15 06:52:05;;;;;;;1.80;1.70;;;;;;;24.99;60.97;96606.06;5054450;28;20247;-31
2022/08/15 06:54:42;;;;;;;2.00;1.80;;;;;;;24.99;60.81;96603.50;5037768;28;20250;-30
2022/08/15 06:57:39;;;;;;;2.20;2.10;;;;;;;24.86;60.70;96580.34;5037564;28;20691;-29
2022/08/15 07:00:08;;;;;;;2.00;1.90;;;;;;;24.99;60.86;96607.81;5031306;28;20204;-30
2022/08/15 07:03:01;;;;;;;2.10;2.00;;;;;;;24.98;60.49;96601.78;5071763;28;20203;-30
2022/08/15 07:05:35;;;;;;;2.07;1.97;;;;;;;25.00;60.32;96604.38;5071358;28;20200;-30
2022/08/15 07:08:26;;;;;;;1.90;1.80;;;;;;;25.00;60.72;96612.94;5056029;28;20238;-30
2022/08/15 07:11:21;;;;;;;2.20;2.10;;;;;;;24.99;60.29;96603.50;5071174;28;20240;-30
2022/08/15 07:13:57;;;;;;;2.20;2.10;;;;;;;25.00;60.47;96601.81;5056659;28;20634;-30
2022/08/15 07:17:02;;;;;;;2.13;1.93;;;;;;;25.01;60.59;96608.66;5053798;28;20217;-30
2022/08/15 07:19:29;;;;;;;2.00;1.90;;;;;;;25.01;60.61;96601.81;5071898;28;20200;-30
2022/08/15 07:22:01;;;;;;;1.97;1.87;;;;;;;25.00;60.67;96602.66;5071525;28;20607;-30
2022/08/15 07:24:32;;;;;;;2.20;2.10;;;;;;;25.00;60.53;96605.25;5071409;28;20258;-30
2022/08/15 07:27:02;;;;;;;2.10;2.00;;;;;;;25.02;60.76;96602.66;5071190;28;20270;-30
2022/08/15 07:29:37;;;;;;;1.93;1.83;;;;;;;25.01;60.47;96606.94;5071481;28;20203;-31
2022/08/15 07:32:12;;;;;;;2.23;2.13;;;;;;;25.02;60.51;96600.09;5071506;28;20281;-30
2022/08/15 07:35:01;;;;;;;2.30;2.20;;;;;;;25.02;60.78;96594.97;5070937;28;20246;-30
2022/08/15 07:37:37;;;;;;;1.83;1.73;;;;;;;25.02;60.90;96598.38;5067611;28;20200;-30
2022/08/15 07:40:17;;;;;;;2.00;1.90;;;;;;;25.03;60.69;96594.09;5071334;28;20192;-30
2022/08/15 07:42:53;;;;;;;2.33;2.23;;;;;;;25.02;60.58;96603.50;5068668;28;20568;-30
2022/08/15 07:45:33;;;;;;;2.20;2.10;;;;;;;25.04;60.54;96601.81;5063601;28;20650;-31
2022/08/15 07:48:24;;;;;;;2.00;1.90;;;;;;;24.98;60.34;96585.50;5071388;28;20201;-30
2022/08/15 07:51:13;;;;;;;2.07;1.97;;;;;;;25.03;60.76;96596.66;5043070;28;20216;-31
2022/08/15 07:54:04;;;;;;;1.93;1.83;;;;;;;25.03;60.60;96592.38;5071123;28;20203;-30
2022/08/15 07:56:32;;;;;;;2.13;2.03;;;;;;;25.04;60.82;96600.94;5066134;28;20226;-30
2022/08/15 07:59:23;;;;;;;2.00;1.90;;;;;;;25.04;60.60;96608.66;5070906;28;20200;-30
2022/08/15 08:01:53;;;;;;;2.17;2.07;;;;;;;25.04;60.64;96614.66;5070715;28;20280;-30
2022/08/15 08:04:27;;;;;;;1.90;1.80;;;;;;;25.04;60.58;96606.94;5036759;28;20219;-30
2022/08/15 08:07:00;;;;;;;2.00;1.90;;;;;;;25.05;60.43;96607.81;5036109;28;20206;-31
2022/08/15 08:09:38;;;;;;;2.10;2.00;;;;;;;25.04;61.03;96609.50;5048369;28;20221;-30
2022/08/15 08:12:11;;;;;;;2.10;2.00;;;;;;;25.04;60.57;96608.66;5061951;28;20285;-30
2022/08/15 08:15:09;;;;;;;2.10;2.00;;;;;;;25.04;60.64;96601.81;5054374;28;20192;-30
2022/08/15 08:17:46;;;;;;;1.77;1.67;;;;;;;24.96;60.53;96592.38;5060611;28;20208;-30
2022/08/15 08:20:27;;;;;;;2.00;1.90;;;;;;;25.02;60.47;96600.94;5037428;28;20238;-30
2022/08/15 08:22:57;;;;;;;2.07;1.97;;;;;;;25.05;61.03;96610.38;5059170;28;20640;-30
2022/08/15 08:26:03;;;;;;;1.83;1.73;;;;;;;25.05;60.49;96612.97;5070475;28;20317;-30
2022/08/15 08:28:56;;;;;;;2.00;1.90;;;;;;;25.05;60.83;96612.97;5067337;28;20584;-30
2022/08/15 08:31:36;;;;;;;2.23;2.03;;;;;;;25.05;60.49;96620.66;5070748;28;20688;-30
2022/08/15 08:34:15;;;;;;;2.50;2.30;;;;;;;25.04;60.50;96619.81;5070123;28;20242;-30
2022/08/15 08:37:03;;;;;;;2.13;2.03;;;;;;;25.06;60.75;96630.09;5056435;28;20203;-30
2022/08/15 08:39:48;;;;;;;2.00;1.90;;;;;;;25.05;60.95;96628.38;5052446;28;20231;-30
2022/08/15 08:42:30;;;;;;;2.10;2.00;;;;;;;25.05;60.72;96624.06;5070602;28;20265;-30
2022/08/15 08:45:19;;;;;;;2.10;2.00;;;;;;;25.02;60.50;96616.34;5062701;28;20212;-30
2022/08/15 08:48:04;;;;;;;2.00;1.90;;;;;;;25.05;60.67;96620.66;5035592;28;20517;-30
2022/08/15 08:50:52;;;;;;;1.73;1.63;;;;;;;25.03;60.53;96619.78;5070386;28;20260;-30
2022/08/15 08:53:41;;;;;;;2.03;1.93;;;;;;;25.06;60.80;96624.94;5048453;28;20287;-30
2022/08/15 08:56:19;;;;;;;2.20;2.10;;;;;;;25.05;60.49;96624.06;5069863;28;20254;-31
2022/08/15 08:59:17;;;;;;;1.97;1.87;;;;;;;24.98;60.89;96599.22;5045958;28;20215;-30
2022/08/15 09:01:47;;;;;;;2.00;1.90;;;;;;;24.95;60.73;96600.94;5052608;28;20247;-30
2022/08/15 09:04:22;;;;;;;1.90;1.80;;;;;;;25.06;60.61;96622.38;5045531;28;20610;-30
2022/08/15 09:06:50;;;;;;;2.33;2.20;;;;;;;25.05;60.42;96616.38;5068353;28;20249;-30
2022/08/15 09:09:31;;;;;;;2.00;1.90;;;;;;;25.02;60.54;96615.53;5017690;28;20342;-30
2022/08/15 09:14:58;;;;;;;2.00;1.90;;;;;;;24.94;60.80;96607.81;5050134;28;20205;-24
2022/08/15 09:17:33;;;;;;;2.00;1.90;;;;;;;25.04;60.46;96635.22;5022911;28;20204;-24
2022/08/15 09:20:10;;;;;;;2.10;2.00;;;;;;;25.05;60.52;96633.53;5018279;28;20241;-24
2022/08/15 09:22:47;;;;;;;2.40;2.20;;;;;;;25.06;60.87;96630.97;5047771;28;20221;-24
2022/08/15 09:25:14;;;;;;;1.90;1.80;;;;;;;25.05;60.97;96631.78;5000479;28;20214;-24
2022/08/15 09:28:10;;;;;;;2.10;2.00;;;;;;;25.06;60.82;96632.66;5034594;28;20217;-24
2022/08/15 09:31:11;;;;;;;1.90;1.80;;;;;;;25.05;60.59;96634.34;5014679;28;20233;-24
2022/08/15 09:33:51;;;;;;;2.20;2.10;;;;;;;25.05;60.91;96634.34;5018809;28;20289;-24
2022/08/15 09:36:27;;;;;;;2.07;1.97;;;;;;;25.00;60.76;96633.50;5027816;28;20251;-25
2022/08/15 09:39:32;;;;;;;2.23;2.13;;;;;;;25.04;60.62;96637.81;5019611;28;20327;-24
2022/08/15 09:42:29;;;;;;;2.03;1.93;;;;;;;25.05;60.96;96643.81;5043767;28;20598;-24
2022/08/15 09:45:34;;;;;;;2.00;1.90;;;;;;;24.98;60.71;96618.91;5027311;28;20260;-24
2022/08/15 09:48:42;;;;;;;2.00;1.90;;;;;;;25.05;60.86;96625.81;5014417;28;20193;-24
2022/08/15 09:51:22;;;;;;;1.90;1.80;;;;;;;25.02;60.75;96618.94;5024449;28;20233;-25
2022/08/15 09:54:17;;;;;;;2.10;2.00;;;;;;;25.00;60.75;96607.81;5026032;28;20261;-26
2022/08/15 09:57:22;;;;;;;2.10;2.00;;;;;;;25.04;60.90;96617.22;5028027;28;20685;-24
2022/08/15 09:59:59;;;;;;;1.90;1.80;;;;;;;25.03;60.91;96615.53;5031745;28;20202;-24
2022/08/15 10:02:32;;;;;;;2.07;1.97;;;;;;;25.03;60.56;96612.97;5015139;28;20221;-24
2022/08/15 10:05:16;;;;;;;2.23;2.07;;;;;;;25.04;60.73;96618.94;5025478;28;20216;-24
2022/08/15 10:07:58;;;;;;;2.00;1.90;;;;;;;25.03;60.50;96625.81;5033995;28;20259;-24
2022/08/15 10:10:37;;;;;;;2.30;2.20;;;;;;;25.03;60.55;96623.25;5042684;28;20237;-24
2022/08/15 10:13:06;;;;;;;1.90;1.80;;;;;;;25.03;60.66;96620.66;5042946;28;20765;-24
2022/08/15 10:15:41;;;;;;;2.00;1.90;;;;;;;25.02;60.90;96621.50;5048964;28;20682;-24
2022/08/15 10:18:25;;;;;;;1.77;1.67;;;;;;;25.03;60.86;96622.38;5042968;28;20201;-24
2022/08/15 10:20:55;;;;;;;2.10;2.00;;;;;;;25.02;61.00;96624.06;5033361;28;20197;-24
2022/08/15 10:23:40;;;;;;;2.03;1.93;;;;;;;24.79;60.73;96579.50;5028069;28;20715;-24
2022/08/15 10:26:26;;;;;;;1.93;1.83;;;;;;;24.92;61.05;96588.06;5016905;28;20272;-26
2022/08/15 10:29:16;;;;;;;2.07;1.97;;;;;;;24.99;60.94;96597.53;5026790;28;20671;-24
2022/08/15 10:31:53;;;;;;;2.13;2.03;;;;;;;25.03;60.64;96607.81;5034675;28;20720;-24
2022/08/15 10:34:56;;;;;;;2.57;2.37;;;;;;;25.03;61.01;96599.22;5018701;28;20206;-24
2022/08/15 10:37:45;;;;;;;2.33;2.13;;;;;;;25.03;61.07;96600.09;5015061;28;20201;-24
2022/08/15 10:40:38;;;;;;;2.17;2.07;;;;;;;25.03;60.53;96597.53;5037560;28;20285;-26
2022/08/15 10:43:17;;;;;;;2.10;2.00;;;;;;;25.01;60.94;96590.66;5028761;28;20292;-24
2022/08/15 10:46:17;;;;;;;2.30;2.10;;;;;;;25.03;60.93;96592.38;5047832;28;20271;-24
2022/08/15 10:49:01;;;;;;;2.00;1.90;;;;;;;25.03;60.53;96589.81;5040888;28;20201;-24
2022/08/15 10:51:57;;;;;;;2.00;1.90;;;;;;;25.03;60.68;96584.69;5006614;28;20225;-24
2022/08/15 10:54:57;;;;;;;2.10;2.00;;;;;;;25.03;60.89;96584.69;4961492;28;20263;-24
2022/08/15 10:57:24;;;;;;;2.07;1.97;;;;;;;24.96;61.00;96567.50;5040530;28;20236;-24
2022/08/15 11:00:01;;;;;;;1.93;1.83;;;;;;;25.03;61.05;96582.09;5010510;28;20212;-24
2022/08/15 11:02:49;;;;;;;2.00;1.90;;;;;;;24.92;60.84;96560.66;5005075;28;20213;-24
2022/08/15 11:05:36;;;;;;;2.10;2.00;;;;;;;25.02;60.83;96572.66;5014704;28;20225;-24
2022/08/15 11:08:02;;;;;;;2.23;2.13;;;;;;;25.03;60.80;96584.69;5041380;28;20280;-24
2022/08/15 11:10:30;;;;;;;2.17;2.07;;;;;;;25.02;60.66;96577.78;5040137;28;20744;-24
2022/08/15 11:13:05;;;;;;;2.03;1.93;;;;;;;25.02;60.70;96575.22;5020958;28;20261;-24
2022/08/15 11:15:46;;;;;;;2.10;2.00;;;;;;;25.00;60.63;96568.38;5022082;28;20671;-24
2022/08/15 11:18:13;;;;;;;2.00;1.90;;;;;;;25.03;60.57;96565.81;5009173;28;20197;-24
2022/08/15 11:20:52;;;;;;;2.10;2.00;;;;;;;23.84;61.03;96384.94;5000593;28;20216;-24
2022/08/15 11:23:36;;;;;;;2.20;2.10;;;;;;;25.02;60.98;96556.41;5031907;28;20225;-24
2022/08/15 11:26:04;;;;;;;2.13;2.03;;;;;;;25.01;61.02;96567.50;5037597;28;20303;-24
2022/08/15 11:28:44;;;;;;;2.20;2.10;;;;;;;25.02;60.54;96557.22;5029565;28;20236;-24
2022/08/15 11:31:22;;;;;;;1.90;1.80;;;;;;;25.03;60.67;96558.97;5038663;28;20743;-24
2022/08/15 11:33:49;;;;;;;2.13;2.03;;;;;;;24.96;60.55;96546.13;5035565;28;20234;-24
2022/08/15 11:36:22;;;;;;;2.27;2.17;;;;;;;25.04;61.05;96560.66;5024508;28;20209;-24
2022/08/15 11:38:59;;;;;;;2.10;2.00;;;;;;;25.00;60.66;96553.81;5030204;28;20220;-24
2022/08/15 11:41:47;;;;;;;2.20;2.10;;;;;;;25.03;60.92;96546.13;5030666;28;20275;-24
2022/08/15 11:44:16;;;;;;;1.90;1.80;;;;;;;25.03;60.57;96547.81;5010454;28;20568;-24
2022/08/15 11:46:48;;;;;;;2.10;2.00;;;;;;;24.81;60.66;96505.81;5015511;28;20206;-24
2022/08/15 11:49:31;;;;;;;1.80;1.70;;;;;;;25.03;61.11;96551.25;5016878;28;20685;-24
2022/08/15 11:52:00;;;;;;;1.93;1.83;;;;;;;25.03;60.96;96543.53;4998535;28;20722;-24
2022/08/15 11:54:48;;;;;;;2.03;1.93;;;;;;;25.02;60.67;96546.94;5022451;28;20206;-24
2022/08/15 11:57:20;;;;;;;2.03;1.93;;;;;;;25.04;61.08;96541.81;5010373;28;20292;-24
2022/08/15 12:00:14;;;;;;;1.90;1.80;;;;;;;25.03;60.90;96535.84;5018378;28;20391;-24
2022/08/15 12:02:51;;;;;;;2.30;2.17;;;;;;;25.02;60.70;96536.66;5020862;28;20708;-24
2022/08/15 12:05:35;;;;;;;2.00;1.90;;;;;;;25.04;60.56;96534.09;5030541;28;20229;-24
2022/08/15 12:08:10;;;;;;;2.13;2.03;;;;;;;25.03;60.93;96522.97;5030497;28;20224;-24
2022/08/15 12:11:04;;;;;;;2.20;2.00;;;;;;;25.03;60.49;96522.09;5027750;28;20201;-24
2022/08/15 12:13:33;;;;;;;2.03;1.93;;;;;;;25.03;60.50;96525.53;5033304;28;20244;-24
2022/08/15 12:16:01;;;;;;;1.93;1.80;;;;;;;25.02;61.02;96522.97;5034610;28;20201;-24
2022/08/15 12:18:48;;;;;;;1.80;1.70;;;;;;;25.02;60.92;96518.66;5031111;28;20212;-24
2022/08/15 12:21:20;;;;;;;2.10;2.00;;;;;;;25.03;60.99;96515.25;5034422;28;20727;-24
2022/08/15 12:23:55;;;;;;;2.00;1.90;;;;;;;25.05;60.55;96517.84;5041998;28;20293;-24
2022/08/15 12:26:25;;;;;;;2.30;2.13;;;;;;;25.04;60.66;96510.97;5041473;28;20259;-24
2022/08/15 12:29:11;;;;;;;1.87;1.77;;;;;;;25.03;60.98;96504.97;5030538;28;20220;-24
2022/08/15 12:31:39;;;;;;;2.07;1.97;;;;;;;25.04;60.97;96505.81;5033172;28;20291;-24
2022/08/15 12:34:20;;;;;;;1.83;1.73;;;;;;;24.92;61.08;96491.25;5018687;28;20197;-24